createdAt,value
2023-03-21T00:01:52.719Z,99648.88
2023-03-21T00:04:21.597Z,99651.59
2023-03-21T00:06:49.072Z,99648.03
2023-03-21T00:09:16.700Z,99651.81
2023-03-21T00:11:45.670Z,99643.03
2023-03-21T00:14:20.148Z,99640.31
2023-03-21T00:16:50.626Z,99644.09
2023-03-21T00:19:19.303Z,99637.84
2023-03-21T00:22:03.571Z,99635.59
2023-03-21T00:24:33.460Z,99632.75
2023-03-21T00:27:21.990Z,99636.75
2023-03-21T00:29:52.052Z,99640.81
2023-03-21T00:32:19.962Z,99638.91
2023-03-21T00:35:02.357Z,99637.25
2023-03-21T00:37:36.062Z,99633.44
2023-03-21T00:40:16.413Z,99624.66
2023-03-21T00:42:51.138Z,99625.97
2023-03-21T00:45:19.350Z,99624.44
2023-03-21T00:47:47.000Z,99628.25
2023-03-21T00:50:14.796Z,99631.81
2023-03-21T00:52:42.596Z,99625.53
2023-03-21T00:55:13.748Z,99621.94
2023-03-21T00:57:45.292Z,99623.00
2023-03-21T01:00:15.358Z,99619.22
2023-03-21T01:03:02.733Z,99617.34
2023-03-21T01:05:55.708Z,99620.28
2023-03-21T01:08:28.163Z,99615.66
2023-03-21T01:10:56.934Z,99616.72
2023-03-21T01:13:25.030Z,99617.81
2023-03-21T01:15:54.210Z,99616.16
2023-03-21T01:18:24.997Z,99618.88
2023-03-21T01:20:52.967Z,99616.97
2023-03-21T01:23:20.562Z,99609.88
2023-03-21T01:25:49.471Z,99611.78
2023-03-21T01:28:17.187Z,99616.38
2023-03-21T01:30:46.371Z,99611.78
2023-03-21T01:33:14.544Z,99615.53
2023-03-21T01:35:51.612Z,99614.72
2023-03-21T01:38:23.514Z,99607.59
2023-03-21T01:40:51.460Z,99610.34
2023-03-21T01:43:23.561Z,99612.47
2023-03-21T01:46:06.698Z,99614.34
2023-03-21T01:48:38.484Z,99615.19
2023-03-21T01:51:06.629Z,99611.63
2023-03-21T01:53:34.868Z,99618.13
2023-03-21T01:56:07.106Z,99619.78
2023-03-21T01:58:36.548Z,99621.94
2023-03-21T02:01:05.267Z,99613.16
2023-03-21T02:03:38.404Z,99618.38
2023-03-21T02:06:09.919Z,99612.09
2023-03-21T02:08:39.892Z,99610.44
2023-03-21T02:11:08.236Z,99622.16
2023-03-21T02:13:36.401Z,99624.91
2023-03-21T02:16:20.081Z,99618.38
2023-03-21T02:18:59.942Z,99610.19
2023-03-21T02:21:29.033Z,99614.81
2023-03-21T02:24:10.852Z,99616.94
2023-03-21T02:26:48.194Z,99609.59
2023-03-21T02:29:18.541Z,99615.28
2023-03-21T02:31:58.809Z,99613.37
2023-03-21T02:34:28.568Z,99611.72
2023-03-21T02:37:03.151Z,99607.34
2023-03-21T02:39:47.821Z,99617.19
2023-03-21T02:42:22.023Z,99619.06
2023-03-21T02:44:58.872Z,99617.41
2023-03-21T02:47:33.572Z,99613.00
2023-03-21T02:50:23.754Z,99613.00
2023-03-21T02:52:52.276Z,99610.28
2023-03-21T02:55:25.820Z,99614.91
2023-03-21T02:57:56.514Z,99621.44
2023-03-21T03:00:27.341Z,99618.69
2023-03-21T03:03:08.203Z,99617.88
2023-03-21T03:05:56.984Z,99614.09
2023-03-21T03:08:59.737Z,99613.00
2023-03-21T03:11:40.998Z,99614.09
2023-03-21T03:14:49.974Z,99616.81
2023-03-21T03:17:40.361Z,99618.69
2023-03-21T03:20:17.465Z,99620.00
2023-03-21T03:23:07.472Z,99619.59
2023-03-21T03:25:49.014Z,99621.50
2023-03-21T03:28:20.043Z,99619.37
2023-03-21T03:31:01.213Z,99617.97
2023-03-21T03:33:34.825Z,99613.34
2023-03-21T03:36:06.496Z,99618.78
2023-03-21T03:38:34.836Z,99611.44
2023-03-21T03:41:04.000Z,99606.00
2023-03-21T03:43:42.143Z,99612.50
2023-03-21T03:46:13.861Z,99615.00
2023-03-21T03:48:48.969Z,99616.06
2023-03-21T03:51:21.848Z,99618.53
2023-03-21T03:53:53.516Z,99613.34
2023-03-21T03:56:21.431Z,99617.97
2023-03-21T03:58:49.272Z,99618.78
2023-03-21T04:01:17.750Z,99618.78
2023-03-21T04:03:51.724Z,99622.34
2023-03-21T04:06:24.421Z,99622.53
2023-03-21T04:08:52.514Z,99612.50
2023-03-21T04:11:19.984Z,99612.72
2023-03-21T04:13:47.777Z,99615.44
2023-03-21T04:16:19.355Z,99610.81
2023-03-21T04:18:47.826Z,99607.28
2023-03-21T04:21:18.384Z,99607.50
2023-03-21T04:23:45.948Z,99611.06
2023-03-21T04:26:13.469Z,99611.31
2023-03-21T04:28:41.636Z,99616.50
2023-03-21T04:31:24.476Z,99612.13
2023-03-21T04:33:53.777Z,99611.31
2023-03-21T04:36:27.327Z,99609.63
2023-03-21T04:39:00.788Z,99611.53
2023-03-21T04:41:28.724Z,99612.59
2023-03-21T04:43:57.263Z,99610.09
2023-03-21T04:46:24.800Z,99614.72
2023-03-21T04:48:52.233Z,99613.06
2023-03-21T04:51:20.060Z,99610.34
2023-03-21T04:53:49.430Z,99610.94
2023-03-21T04:56:16.997Z,99610.94
2023-03-21T04:58:45.423Z,99611.75
2023-03-21T05:01:14.474Z,99602.75
2023-03-21T05:03:42.792Z,99610.69
2023-03-21T05:06:10.823Z,99614.47
2023-03-21T05:08:38.257Z,99615.31
2023-03-21T05:11:06.018Z,99621.81
2023-03-21T05:13:33.865Z,99621.81
2023-03-21T05:16:01.292Z,99621.81
2023-03-21T05:18:30.467Z,99627.28
2023-03-21T05:20:58.762Z,99625.63
2023-03-21T05:23:31.769Z,99623.72
2023-03-21T05:25:59.918Z,99626.44
2023-03-21T05:28:31.744Z,99632.72
2023-03-21T05:30:59.548Z,99631.06
2023-03-21T05:33:27.074Z,99629.41
2023-03-21T05:35:54.620Z,99635.44
2023-03-21T05:38:22.506Z,99629.41
2023-03-21T05:40:50.472Z,99629.41
2023-03-21T05:43:17.996Z,99635.69
2023-03-21T05:45:45.839Z,99639.44
2023-03-21T05:48:13.643Z,99641.13
2023-03-21T05:50:42.860Z,99644.88
2023-03-21T05:53:10.996Z,99651.78
2023-03-21T05:55:38.937Z,99646.78
2023-03-21T05:58:08.089Z,99656.63
2023-03-21T06:00:36.112Z,99655.78
2023-03-21T06:03:06.109Z,99652.22
2023-03-21T06:05:34.051Z,99649.50
2023-03-21T06:08:01.610Z,99656.03
2023-03-21T06:10:29.720Z,99654.38
2023-03-21T06:12:57.990Z,99655.44
2023-03-21T06:15:26.763Z,99655.66
2023-03-21T06:17:54.897Z,99655.44
2023-03-21T06:20:22.832Z,99658.37
2023-03-21T06:22:50.854Z,99660.88
2023-03-21T06:25:19.027Z,99657.34
2023-03-21T06:27:46.591Z,99657.34
2023-03-21T06:30:15.326Z,99654.59
2023-03-21T06:32:45.102Z,99658.37
2023-03-21T06:35:12.843Z,99661.91
2023-03-21T06:37:40.504Z,99662.53
2023-03-21T06:40:11.126Z,99657.34
2023-03-21T06:42:38.642Z,99654.59
2023-03-21T06:45:06.905Z,99660.06
2023-03-21T06:47:34.632Z,99661.09
2023-03-21T06:50:02.668Z,99655.88
2023-03-21T06:52:31.965Z,99656.72
2023-03-21T06:54:59.695Z,99655.88
2023-03-21T06:57:27.135Z,99656.94
2023-03-21T06:59:54.673Z,99656.94
2023-03-21T07:02:23.336Z,99662.59
2023-03-21T07:04:51.187Z,99655.50
2023-03-21T07:07:19.029Z,99657.16
2023-03-21T07:09:47.396Z,99662.59
2023-03-21T07:12:14.937Z,99666.41
2023-03-21T07:14:43.394Z,99668.28
2023-03-21T07:17:11.207Z,99663.91
2023-03-21T07:19:38.667Z,99668.53
2023-03-21T07:22:06.106Z,99664.97
2023-03-21T07:24:33.875Z,99667.69
2023-03-21T07:27:01.385Z,99672.31
2023-03-21T07:29:28.858Z,99672.09
2023-03-21T07:31:56.675Z,99680.50
2023-03-21T07:34:24.180Z,99677.53
2023-03-21T07:36:51.682Z,99681.91
2023-03-21T07:39:20.567Z,99677.53
2023-03-21T07:41:47.986Z,99681.91
2023-03-21T07:44:19.882Z,99676.47
2023-03-21T07:46:47.639Z,99667.22
2023-03-21T07:49:16.577Z,99660.94
2023-03-21T07:51:44.003Z,99664.28
2023-03-21T07:54:11.759Z,99667.00
2023-03-21T07:56:39.169Z,99660.75
2023-03-21T07:59:07.418Z,99664.28
2023-03-21T08:01:35.177Z,99665.13
2023-03-21T08:04:02.893Z,99662.97
2023-03-21T08:06:32.408Z,99661.47
2023-03-21T08:08:59.858Z,99662.28
2023-03-21T08:11:31.331Z,99659.13
2023-03-21T08:13:59.644Z,99661.59
2023-03-21T08:16:27.896Z,99657.81
2023-03-21T08:18:55.477Z,99663.06
2023-03-21T08:21:22.927Z,99669.31
2023-03-21T08:23:50.641Z,99668.00
2023-03-21T08:26:18.508Z,99655.22
2023-03-21T08:28:46.449Z,99667.81
2023-03-21T08:31:14.948Z,99668.41
2023-03-21T08:33:42.422Z,99665.47
2023-03-21T08:36:10.386Z,99673.41
2023-03-21T08:38:38.406Z,99674.84
2023-03-21T08:41:06.060Z,99669.38
2023-03-21T08:43:33.500Z,99676.28
2023-03-21T08:46:04.207Z,99665.13
2023-03-21T08:48:31.670Z,99661.34
2023-03-21T08:51:02.274Z,99666.59
2023-03-21T08:53:30.066Z,99666.59
2023-03-21T08:55:57.521Z,99664.44
2023-03-21T08:58:24.953Z,99662.56
2023-03-21T09:00:53.160Z,99670.50
2023-03-21T09:03:20.648Z,99671.09
2023-03-21T09:05:48.177Z,99668.38
2023-03-21T09:08:15.924Z,99658.31
2023-03-21T09:10:43.357Z,99674.44
2023-03-21T09:13:10.840Z,99668.75
2023-03-21T09:15:39.403Z,99672.31
2023-03-21T09:18:13.462Z,99670.41
2023-03-21T09:20:43.075Z,99676.44
2023-03-21T09:23:11.482Z,99674.56
2023-03-21T09:25:39.422Z,99668.88
2023-03-21T09:28:08.126Z,99675.59
2023-03-21T09:30:36.646Z,99678.34
2023-03-21T09:33:06.584Z,99676.09
2023-03-21T09:35:34.944Z,99670.66
2023-03-21T09:38:03.002Z,99675.03
2023-03-21T09:41:04.527Z,99670.66
2023-03-21T09:43:39.712Z,99673.97
2023-03-21T09:46:32.587Z,99672.53
2023-03-21T09:49:03.110Z,99669.00
2023-03-21T09:51:33.512Z,99662.94
2023-03-21T09:54:06.749Z,99662.94
2023-03-21T09:56:36.622Z,99659.97
2023-03-21T09:59:05.062Z,99656.19
2023-03-21T10:01:41.930Z,99654.78
2023-03-21T10:04:12.914Z,99654.28
2023-03-21T10:06:41.208Z,99646.00
2023-03-21T10:09:15.104Z,99641.25
2023-03-21T10:12:08.322Z,99645.50
2023-03-21T10:14:44.035Z,99642.37
2023-03-21T10:17:33.753Z,99644.72
2023-03-21T10:20:21.418Z,99638.06
2023-03-21T10:22:51.230Z,99629.31
2023-03-21T10:25:21.346Z,99632.97
2023-03-21T10:27:49.089Z,99632.59
2023-03-21T10:30:46.566Z,99633.28
2023-03-21T10:33:20.640Z,99635.75
2023-03-21T10:35:57.244Z,99636.25
2023-03-21T10:38:25.572Z,99624.50
2023-03-21T10:40:53.168Z,99627.44
2023-03-21T10:43:30.218Z,99632.91
2023-03-21T10:45:58.130Z,99630.16
2023-03-21T10:48:26.097Z,99640.00
2023-03-21T10:50:54.855Z,99629.09
2023-03-21T10:53:32.633Z,99620.34
2023-03-21T10:56:00.679Z,99621.19
2023-03-21T10:58:33.369Z,99617.00
2023-03-21T11:01:05.785Z,99621.19
2023-03-21T11:03:37.693Z,99612.78
2023-03-21T11:06:26.504Z,99616.31
2023-03-21T11:08:55.575Z,99611.94
2023-03-21T11:11:29.881Z,99606.63
2023-03-21T11:14:06.708Z,99605.03
2023-03-21T11:16:39.022Z,99592.06
2023-03-21T11:19:19.221Z,99596.59
2023-03-21T11:21:46.685Z,99586.31
2023-03-21T11:24:18.113Z,99592.16
2023-03-21T11:26:48.129Z,99587.28
2023-03-21T11:29:19.418Z,99585.41
2023-03-21T11:31:47.016Z,99589.19
2023-03-21T11:34:39.162Z,99591.31
2023-03-21T11:37:18.201Z,99573.53
2023-03-21T11:39:45.687Z,99579.66
2023-03-21T11:42:33.080Z,99563.88
2023-03-21T11:45:02.987Z,99555.56
2023-03-21T11:47:31.697Z,99557.22
2023-03-21T11:50:04.908Z,99551.50
2023-03-21T11:52:38.897Z,99542.25
2023-03-21T11:55:31.554Z,99543.91
2023-03-21T11:58:26.500Z,99560.84
2023-03-21T12:01:15.320Z,99554.34
2023-03-21T12:03:48.750Z,99554.34
2023-03-21T12:06:22.422Z,99543.09
2023-03-21T12:09:08.678Z,99540.56
2023-03-21T12:12:05.102Z,99534.28
2023-03-21T12:15:02.592Z,99545.22
2023-03-21T12:17:54.575Z,99543.81
2023-03-21T12:20:43.272Z,99543.22
2023-03-21T12:23:13.480Z,99538.25
2023-03-21T12:25:45.958Z,99546.09
2023-03-21T12:28:35.696Z,99547.38
2023-03-21T12:31:12.085Z,99538.06
2023-03-21T12:33:46.678Z,99541.00
2023-03-21T12:36:30.881Z,99536.87
2023-03-21T12:39:08.737Z,99539.00
2023-03-21T12:41:44.049Z,99534.63
2023-03-21T12:44:20.352Z,99528.59
2023-03-21T12:46:50.925Z,99525.00
2023-03-21T12:49:36.018Z,99524.91
2023-03-21T12:52:09.471Z,99518.41
2023-03-21T12:54:42.760Z,99518.88
2023-03-21T12:57:28.619Z,99519.13
2023-03-21T13:00:00.825Z,99517.69
2023-03-21T13:02:38.233Z,99513.78
2023-03-21T13:05:29.115Z,99505.84
2023-03-21T13:08:28.197Z,99502.28
2023-03-21T13:10:55.714Z,99500.84
2023-03-21T13:13:36.822Z,99491.28
2023-03-21T13:16:38.722Z,99491.50
2023-03-21T13:19:34.477Z,99495.31
2023-03-21T13:22:23.591Z,99492.78
2023-03-21T13:24:58.064Z,99495.97
2023-03-21T13:27:39.441Z,99494.59
2023-03-21T13:30:21.860Z,99492.91
2023-03-21T13:32:50.382Z,99495.88
2023-03-21T13:35:29.051Z,99495.53
2023-03-21T13:38:16.523Z,99491.97
2023-03-21T13:40:52.006Z,99489.72
2023-03-21T13:43:45.731Z,99492.44
2023-03-21T13:46:14.606Z,99488.06
2023-03-21T13:48:49.395Z,99483.31
2023-03-21T13:51:44.487Z,99478.38
2023-03-21T13:54:17.654Z,99481.66
2023-03-21T13:56:48.074Z,99484.03
2023-03-21T13:59:34.025Z,99477.19
2023-03-21T14:02:06.107Z,99474.09
2023-03-21T14:04:42.427Z,99467.94
2023-03-21T14:07:22.615Z,99459.19
2023-03-21T14:09:54.949Z,99459.19
2023-03-21T14:12:37.101Z,99453.72
2023-03-21T14:15:29.243Z,99457.84
2023-03-21T14:18:10.768Z,99458.09
2023-03-21T14:20:53.693Z,99453.22
2023-03-21T14:23:21.252Z,99445.06
2023-03-21T14:25:49.400Z,99441.75
2023-03-21T14:28:21.838Z,99441.16
2023-03-21T14:30:54.742Z,99432.97
2023-03-21T14:33:36.236Z,99432.97
2023-03-21T14:36:11.740Z,99431.06
2023-03-21T14:38:39.892Z,99427.78
2023-03-21T14:41:23.080Z,99415.22
2023-03-21T14:44:09.510Z,99427.53
2023-03-21T14:46:37.365Z,99428.59
2023-03-21T14:49:30.330Z,99423.41
2023-03-21T14:52:06.832Z,99421.50
2023-03-21T14:54:34.355Z,99432.62
2023-03-21T14:57:03.783Z,99429.31
2023-03-21T14:59:36.547Z,99433.09
2023-03-21T15:02:23.116Z,99430.37
2023-03-21T15:04:52.789Z,99426.59
2023-03-21T15:07:28.428Z,99431.47
2023-03-21T15:09:57.837Z,99426.00
2023-03-21T15:12:25.562Z,99419.94
2023-03-21T15:14:53.053Z,99419.72
2023-03-21T15:17:20.862Z,99413.44
2023-03-21T15:19:48.576Z,99416.16
2023-03-21T15:22:20.896Z,99407.97
2023-03-21T15:24:52.436Z,99414.50
2023-03-21T15:27:20.540Z,99412.59
2023-03-21T15:29:49.197Z,99406.31
2023-03-21T15:32:18.960Z,99405.50
2023-03-21T15:34:46.564Z,99403.84
2023-03-21T15:37:25.733Z,99408.22
2023-03-21T15:39:54.566Z,99407.41
2023-03-21T15:42:30.186Z,99413.69
2023-03-21T15:45:00.814Z,99404.69
2023-03-21T15:47:54.484Z,99404.09
2023-03-21T15:50:27.058Z,99409.06
2023-03-21T15:52:54.538Z,99404.09
2023-03-21T15:55:26.935Z,99405.97
2023-03-21T15:57:59.970Z,99412.50
2023-03-21T16:00:35.909Z,99417.72
2023-03-21T16:03:19.441Z,99413.31
2023-03-21T16:06:15.455Z,99414.41
2023-03-21T16:08:47.288Z,99407.88
2023-03-21T16:11:16.358Z,99410.00
2023-03-21T16:13:44.113Z,99415.72
2023-03-21T16:16:26.427Z,99414.63
2023-03-21T16:18:54.873Z,99418.44
2023-03-21T16:21:23.721Z,99416.75
2023-03-21T16:23:51.214Z,99426.84
2023-03-21T16:26:27.684Z,99426.84
2023-03-21T16:28:55.444Z,99424.94
2023-03-21T16:31:24.711Z,99429.56
2023-03-21T16:33:52.196Z,99424.34
2023-03-21T16:36:21.968Z,99427.31
2023-03-21T16:38:49.695Z,99430.88
2023-03-21T16:41:17.114Z,99429.66
2023-03-21T16:43:44.625Z,99431.72
2023-03-21T16:46:16.865Z,99430.28
2023-03-21T16:48:46.702Z,99429.69
2023-03-21T16:51:15.541Z,99439.75
2023-03-21T16:53:43.799Z,99446.50
2023-03-21T16:56:24.343Z,99449.59
2023-03-21T16:58:53.621Z,99450.66
2023-03-21T17:01:27.353Z,99454.94
2023-03-21T17:03:55.607Z,99450.53
2023-03-21T17:06:26.767Z,99457.91
2023-03-21T17:08:55.489Z,99462.28
2023-03-21T17:11:24.319Z,99457.03
2023-03-21T17:13:53.718Z,99461.44
2023-03-21T17:16:25.466Z,99457.03
2023-03-21T17:18:55.812Z,99460.63
2023-03-21T17:21:25.110Z,99464.38
2023-03-21T17:23:52.921Z,99462.47
2023-03-21T17:26:27.020Z,99459.75
2023-03-21T17:28:57.157Z,99462.47
2023-03-21T17:31:26.007Z,99460.63
2023-03-21T17:33:54.156Z,99465.81
2023-03-21T17:36:27.101Z,99469.84
2023-03-21T17:38:55.491Z,99468.78
2023-03-21T17:41:23.518Z,99466.06
2023-03-21T17:43:51.802Z,99473.38
2023-03-21T17:46:21.116Z,99473.38
2023-03-21T17:48:48.910Z,99466.28
2023-03-21T17:51:17.279Z,99470.66
2023-03-21T17:53:48.866Z,99465.22
2023-03-21T17:56:31.609Z,99466.28
2023-03-21T17:59:12.229Z,99478.84
2023-03-21T18:01:39.672Z,99477.44
2023-03-21T18:04:08.195Z,99473.53
2023-03-21T18:06:37.366Z,99480.97
2023-03-21T18:09:11.423Z,99482.50
2023-03-21T18:11:39.971Z,99483.59
2023-03-21T18:14:16.258Z,99483.59
2023-03-21T18:16:48.112Z,99483.81
2023-03-21T18:19:17.419Z,99488.19
2023-03-21T18:21:46.120Z,99490.28
2023-03-21T18:24:14.983Z,99500.16
2023-03-21T18:26:44.016Z,99485.69
2023-03-21T18:32:07.788Z,99496.81
2023-03-21T18:34:39.124Z,99503.91
2023-03-21T18:37:12.658Z,99499.53
2023-03-21T18:39:44.461Z,99500.34
2023-03-21T18:42:17.738Z,99501.41
2023-03-21T18:44:48.377Z,99502.50
2023-03-21T18:47:18.860Z,99499.78
2023-03-21T18:50:13.794Z,99500.59
2023-03-21T18:52:36.710Z,99506.03
2023-03-21T18:55:06.229Z,99511.50
2023-03-21T18:57:38.265Z,99512.78
2023-03-21T19:00:17.658Z,99509.84
2023-03-21T19:02:48.495Z,99512.94
2023-03-21T19:05:23.282Z,99507.03
2023-03-21T19:07:52.164Z,99506.19
2023-03-21T19:10:22.859Z,99509.66
2023-03-21T19:12:53.073Z,99505.03
2023-03-21T19:15:22.291Z,99512.13
2023-03-21T19:18:34.423Z,99511.66
2023-03-21T19:20:49.270Z,99514.13
2023-03-21T19:23:18.827Z,99515.22
2023-03-21T19:25:47.728Z,99511.75
2023-03-21T19:28:16.632Z,99512.22
2023-03-21T19:30:50.064Z,99511.25
2023-03-21T19:33:23.199Z,99512.16
2023-03-21T19:36:10.729Z,99513.09
2023-03-21T19:38:42.984Z,99511.53
2023-03-21T19:41:11.605Z,99516.28
2023-03-21T19:43:53.114Z,99518.38
2023-03-21T19:46:27.907Z,99524.56
2023-03-21T19:48:56.988Z,99526.19
2023-03-21T19:51:30.110Z,99531.09
2023-03-21T19:54:02.026Z,99526.19
2023-03-21T19:56:31.896Z,99527.28
2023-03-21T19:59:02.737Z,99530.00
2023-03-21T20:01:35.077Z,99532.53
2023-03-21T20:04:05.251Z,99530.00
2023-03-21T20:06:34.682Z,99533.56
2023-03-21T20:09:47.133Z,99538.19
2023-03-21T20:11:53.742Z,99540.09
2023-03-21T20:14:22.537Z,99543.09
2023-03-21T20:16:55.059Z,99539.75
2023-03-21T20:19:25.035Z,99543.31
2023-03-21T20:21:59.883Z,99542.72
2023-03-21T20:24:32.972Z,99540.81
2023-03-21T20:27:03.212Z,99536.69
2023-03-21T20:30:08.480Z,99547.38
2023-03-21T20:32:24.911Z,99553.66
2023-03-21T20:35:07.997Z,99549.28
2023-03-21T20:37:50.362Z,99538.81
2023-03-21T20:40:23.215Z,99542.38
2023-03-21T20:42:56.344Z,99549.38
2023-03-21T20:45:25.918Z,99541.34
2023-03-21T20:47:55.117Z,99547.28
2023-03-21T20:50:23.786Z,99540.44
2023-03-21T20:53:05.882Z,99549.91
2023-03-21T20:55:37.100Z,99546.34
2023-03-21T20:58:26.823Z,99549.34
2023-03-21T21:00:54.203Z,99558.59
2023-03-21T21:03:24.044Z,99554.44
2023-03-21T21:05:53.802Z,99559.06
2023-03-21T21:08:22.320Z,99558.22
2023-03-21T21:11:32.648Z,99553.00
2023-03-21T21:13:39.120Z,99555.16
2023-03-21T21:16:07.414Z,99567.97
2023-03-21T21:18:35.091Z,99563.81
2023-03-21T21:21:05.914Z,99559.41
2023-03-21T21:23:33.727Z,99571.41
2023-03-21T21:26:01.179Z,99563.91
2023-03-21T21:28:30.393Z,99572.47
2023-03-21T21:30:58.756Z,99570.22
2023-03-21T21:33:29.198Z,99563.38
2023-03-21T21:35:57.014Z,99562.50
2023-03-21T21:38:25.028Z,99563.59
2023-03-21T21:40:52.840Z,99569.03
2023-03-21T21:43:21.129Z,99566.56
2023-03-21T21:45:48.718Z,99560.50
2023-03-21T21:48:16.974Z,99567.84
2023-03-21T21:50:44.876Z,99571.66
2023-03-21T21:53:12.396Z,99571.88
2023-03-21T21:55:40.055Z,99572.09
2023-03-21T21:58:08.569Z,99575.06
2023-03-21T22:00:37.141Z,99568.78
2023-03-21T22:03:05.101Z,99575.31
2023-03-21T22:05:32.596Z,99573.66
2023-03-21T22:08:00.117Z,99570.06
2023-03-21T22:10:27.925Z,99582.06
2023-03-21T22:12:55.354Z,99583.38
2023-03-21T22:15:23.851Z,99579.81
2023-03-21T22:17:51.641Z,99578.97
2023-03-21T22:20:19.697Z,99580.88
2023-03-21T22:22:47.133Z,99581.34
2023-03-21T22:25:15.741Z,99581.34
2023-03-21T22:27:43.282Z,99572.56
2023-03-21T22:30:14.149Z,99578.28
2023-03-21T22:32:41.897Z,99579.34
2023-03-21T22:35:09.763Z,99572.25
2023-03-21T22:37:39.041Z,99583.13
2023-03-21T22:40:08.352Z,99576.25
2023-03-21T22:42:37.139Z,99579.81
2023-03-21T22:45:06.177Z,99579.22
2023-03-21T22:47:33.920Z,99573.78
2023-03-21T22:50:01.458Z,99579.22
2023-03-21T22:52:28.890Z,99586.78
2023-03-21T22:54:56.598Z,99586.22
2023-03-21T22:57:24.085Z,99587.84
2023-03-21T22:59:51.566Z,99593.78
2023-03-21T23:02:19.280Z,99595.47
2023-03-21T23:04:46.847Z,99585.59
2023-03-21T23:07:14.527Z,99582.87
2023-03-21T23:09:42.245Z,99585.59
2023-03-21T23:12:09.722Z,99582.87
2023-03-21T23:14:37.199Z,99573.87
2023-03-21T23:17:04.901Z,99583.13
2023-03-21T23:19:32.435Z,99579.56
2023-03-21T23:21:59.849Z,99577.91
2023-03-21T23:24:27.604Z,99567.22
2023-03-21T23:26:55.065Z,99573.75
2023-03-21T23:29:22.477Z,99576.47
2023-03-21T23:31:50.263Z,99580.03
2023-03-21T23:34:17.745Z,99578.38
2023-03-21T23:36:45.284Z,99578.38
2023-03-21T23:39:13.042Z,99577.78
2023-03-21T23:41:42.779Z,99579.91
2023-03-21T23:44:10.357Z,99586.44
2023-03-21T23:46:38.138Z,99592.69
2023-03-21T23:49:05.874Z,99601.94
2023-03-21T23:51:33.326Z,99603.84
2023-03-21T23:54:01.084Z,99596.72
2023-03-21T23:56:28.724Z,99603.25
2023-03-21T23:58:57.084Z,99592.34
